createdAt,value
2019-03-28T00:00:35.982Z,11.00
2019-03-28T00:03:08.253Z,11.00
2019-03-28T00:05:41.981Z,11.00
2019-03-28T00:08:43.918Z,11.00
2019-03-28T00:11:26.110Z,11.00
2019-03-28T00:13:55.989Z,10.90
2019-03-28T00:16:25.770Z,11.00
2019-03-28T00:18:57.485Z,11.00
2019-03-28T00:21:27.013Z,11.00
2019-03-28T00:24:07.746Z,11.00
2019-03-28T00:26:37.631Z,11.00
2019-03-28T00:29:07.469Z,11.00
2019-03-28T00:31:37.318Z,10.90
2019-03-28T00:34:07.127Z,10.90
2019-03-28T00:36:37.057Z,11.00
2019-03-28T00:39:08.001Z,10.90
2019-03-28T00:41:37.886Z,11.00
2019-03-28T00:44:07.829Z,10.90
2019-03-28T00:46:37.721Z,10.80
2019-03-28T00:49:07.565Z,10.80
2019-03-28T00:51:37.517Z,10.80
2019-03-28T00:54:07.440Z,10.80
2019-03-28T00:56:46.617Z,10.80
2019-03-28T00:59:08.899Z,10.80
2019-03-28T01:01:38.730Z,10.80
2019-03-28T01:04:08.594Z,10.80
2019-03-28T01:06:38.424Z,10.80
2019-03-28T01:09:09.697Z,10.80
2019-03-28T01:11:39.542Z,10.80
2019-03-28T01:14:09.342Z,10.80
2019-03-28T01:16:39.471Z,10.80
2019-03-28T01:19:09.692Z,10.80
2019-03-28T01:21:39.961Z,10.80
2019-03-28T01:24:09.880Z,10.80
2019-03-28T01:26:39.705Z,10.80
2019-03-28T01:29:09.621Z,10.70
2019-03-28T01:31:39.544Z,10.80
2019-03-28T01:34:09.441Z,10.70
2019-03-28T01:36:39.404Z,10.70
2019-03-28T01:39:10.152Z,10.80
2019-03-28T01:41:40.182Z,10.80
2019-03-28T01:44:09.897Z,10.80
2019-03-28T01:46:39.701Z,10.80
2019-03-28T01:49:09.661Z,10.70
2019-03-28T01:51:39.545Z,10.70
2019-03-28T01:54:09.367Z,10.70
2019-03-28T01:56:39.164Z,10.80
2019-03-28T01:59:09.008Z,10.70
2019-03-28T02:01:38.820Z,10.70
2019-03-28T02:04:08.589Z,10.70
2019-03-28T02:06:38.533Z,10.80
2019-03-28T02:09:08.392Z,10.80
2019-03-28T02:11:57.051Z,10.80
2019-03-28T02:14:26.842Z,10.80
2019-03-28T02:16:56.589Z,10.80
2019-03-28T02:19:26.304Z,10.70
2019-03-28T02:21:56.204Z,10.70
2019-03-28T02:24:26.341Z,10.70
2019-03-28T02:26:56.401Z,10.80
2019-03-28T02:29:26.205Z,10.70
2019-03-28T02:31:56.014Z,10.70
2019-03-28T02:34:25.833Z,10.70
2019-03-28T02:36:55.785Z,10.70
2019-03-28T02:39:25.595Z,10.70
2019-03-28T02:41:55.573Z,10.70
2019-03-28T02:44:25.503Z,10.70
2019-03-28T02:46:55.409Z,10.70
2019-03-28T02:49:25.346Z,10.70
2019-03-28T02:51:55.666Z,10.70
2019-03-28T02:54:25.512Z,10.70
2019-03-28T02:56:55.575Z,10.70
2019-03-28T02:59:25.443Z,10.60
2019-03-28T03:01:55.358Z,10.60
2019-03-28T03:04:25.196Z,10.60
2019-03-28T03:06:55.230Z,10.50
2019-03-28T03:09:25.760Z,10.60
2019-03-28T03:11:55.770Z,10.60
2019-03-28T03:14:25.499Z,10.60
2019-03-28T03:16:55.339Z,10.70
2019-03-28T03:19:25.876Z,10.70
2019-03-28T03:21:55.701Z,10.60
2019-03-28T03:24:25.553Z,10.60
2019-03-28T03:26:55.375Z,10.60
2019-03-28T03:29:25.342Z,10.60
2019-03-28T03:31:55.112Z,10.60
2019-03-28T03:34:24.949Z,10.60
2019-03-28T03:36:54.676Z,10.60
2019-03-28T03:39:24.510Z,10.60
2019-03-28T03:41:55.281Z,10.60
2019-03-28T03:44:25.105Z,10.50
2019-03-28T03:46:55.018Z,10.60
2019-03-28T03:49:24.802Z,10.50
2019-03-28T03:51:54.862Z,10.50
2019-03-28T03:54:24.652Z,10.50
2019-03-28T03:56:54.417Z,10.40
2019-03-28T03:59:24.176Z,10.40
2019-03-28T04:01:54.060Z,10.40
2019-03-28T04:04:23.902Z,10.40
2019-03-28T04:06:53.792Z,10.40
2019-03-28T04:09:23.562Z,10.40
2019-03-28T04:11:53.599Z,10.40
2019-03-28T04:14:23.512Z,10.40
2019-03-28T04:16:53.429Z,10.40
2019-03-28T04:19:23.219Z,10.40
2019-03-28T04:21:53.057Z,10.40
2019-03-28T04:24:22.991Z,10.40
2019-03-28T04:26:57.594Z,10.40
2019-03-28T04:29:28.096Z,10.40
2019-03-28T04:31:57.853Z,10.40
2019-03-28T04:34:27.888Z,10.40
2019-03-28T04:36:57.659Z,10.40
2019-03-28T04:39:27.591Z,10.40
2019-03-28T04:41:57.575Z,10.40
2019-03-28T04:44:27.414Z,10.40
2019-03-28T04:46:57.141Z,10.50
2019-03-28T04:49:27.026Z,10.40
2019-03-28T04:51:56.851Z,10.40
2019-03-28T04:54:26.873Z,10.40
2019-03-28T04:57:07.207Z,10.40
2019-03-28T04:59:37.103Z,10.50
2019-03-28T05:02:07.012Z,10.50
2019-03-28T05:04:36.946Z,10.50
2019-03-28T05:07:07.166Z,10.50
2019-03-28T05:09:36.906Z,10.50
2019-03-28T05:12:06.805Z,10.50
2019-03-28T05:14:36.632Z,10.50
2019-03-28T05:17:06.476Z,10.50
2019-03-28T05:19:36.189Z,10.60
2019-03-28T05:22:05.947Z,10.60
2019-03-28T05:24:35.806Z,10.60
2019-03-28T05:27:05.611Z,10.60
2019-03-28T05:29:35.585Z,10.60
2019-03-28T05:32:05.505Z,10.60
2019-03-28T05:34:35.309Z,10.60
2019-03-28T05:37:05.170Z,10.70
2019-03-28T05:39:35.043Z,10.70
2019-03-28T05:42:04.979Z,10.70
2019-03-28T05:44:34.877Z,10.70
2019-03-28T05:47:04.762Z,10.70
2019-03-28T05:49:34.437Z,10.70
2019-03-28T05:52:04.379Z,10.70
2019-03-28T05:54:34.189Z,10.60
2019-03-28T05:57:04.159Z,10.70
2019-03-28T05:59:34.183Z,10.70
2019-03-28T06:02:04.154Z,10.80
2019-03-28T06:04:34.438Z,10.80
2019-03-28T06:07:04.414Z,10.70
2019-03-28T06:09:34.180Z,10.70
2019-03-28T06:12:04.176Z,10.70
2019-03-28T06:14:34.026Z,10.70
2019-03-28T06:17:03.930Z,10.70
2019-03-28T06:19:33.860Z,10.70
2019-03-28T06:22:03.860Z,10.70
2019-03-28T06:24:34.341Z,10.80
2019-03-28T06:27:04.332Z,10.70
2019-03-28T06:29:34.221Z,10.80
2019-03-28T06:32:04.149Z,10.80
2019-03-28T06:34:33.930Z,10.80
2019-03-28T06:37:03.607Z,10.80
2019-03-28T06:39:36.279Z,10.90
2019-03-28T06:42:04.941Z,10.90
2019-03-28T06:44:34.826Z,11.00
2019-03-28T06:47:04.755Z,10.90
2019-03-28T06:49:34.797Z,11.00
2019-03-28T06:52:07.382Z,11.10
2019-03-28T06:54:37.295Z,11.10
2019-03-28T06:57:07.398Z,11.20
2019-03-28T06:59:37.977Z,11.20
2019-03-28T07:02:08.069Z,11.20
2019-03-28T07:04:38.100Z,11.20
2019-03-28T07:07:07.957Z,11.20
2019-03-28T07:09:37.838Z,11.20
2019-03-28T07:12:07.701Z,11.20
2019-03-28T07:14:37.618Z,11.30
2019-03-28T07:17:07.689Z,11.30
2019-03-28T07:19:37.474Z,11.40
2019-03-28T07:22:07.372Z,11.40
2019-03-28T07:24:37.059Z,11.40
2019-03-28T07:27:06.880Z,11.40
2019-03-28T07:29:49.801Z,11.40
2019-03-28T07:32:08.143Z,11.40
2019-03-28T07:34:38.057Z,11.40
2019-03-28T07:37:09.126Z,11.40
2019-03-28T07:39:39.189Z,11.50
2019-03-28T07:42:09.052Z,11.40
2019-03-28T07:44:38.890Z,11.40
2019-03-28T07:47:08.819Z,11.40
2019-03-28T07:49:38.670Z,11.50
2019-03-28T07:52:08.564Z,11.50
2019-03-28T07:54:41.572Z,11.50
2019-03-28T07:57:13.118Z,11.50
2019-03-28T07:59:44.166Z,11.50
2019-03-28T08:02:17.432Z,11.60
2019-03-28T08:04:47.315Z,11.70
2019-03-28T08:07:17.281Z,11.90
2019-03-28T08:09:55.829Z,11.80
2019-03-28T08:12:25.640Z,11.80
2019-03-28T08:14:55.706Z,11.80
2019-03-28T08:17:31.295Z,11.80
2019-03-28T08:20:01.275Z,11.80
2019-03-28T08:22:31.205Z,11.80
2019-03-28T08:25:01.045Z,11.80
2019-03-28T08:27:34.467Z,11.90
2019-03-28T08:30:17.640Z,12.00
2019-03-28T08:32:40.963Z,12.00
2019-03-28T08:35:11.594Z,12.00
2019-03-28T08:37:44.631Z,12.10
2019-03-28T08:40:23.596Z,12.10
2019-03-28T08:42:53.650Z,12.10
2019-03-28T08:45:23.493Z,12.20
2019-03-28T08:47:53.369Z,12.30
2019-03-28T08:50:23.192Z,12.20
2019-03-28T08:52:55.669Z,12.30
2019-03-28T08:55:25.687Z,12.30
2019-03-28T08:57:55.528Z,12.40
2019-03-28T09:00:33.171Z,12.40
2019-03-28T09:02:57.120Z,12.20
2019-03-28T09:05:27.039Z,12.20
2019-03-28T09:07:56.837Z,12.00
2019-03-28T09:10:26.793Z,11.90
2019-03-28T09:12:56.619Z,11.90
2019-03-28T09:15:26.542Z,11.90
2019-03-28T09:17:56.495Z,11.80
2019-03-28T09:20:26.321Z,11.90
2019-03-28T09:22:56.072Z,11.80
2019-03-28T09:25:26.989Z,11.90
2019-03-28T09:27:56.927Z,11.90
2019-03-28T09:30:48.002Z,12.00
2019-03-28T09:33:09.413Z,11.90
2019-03-28T09:35:39.438Z,11.90
2019-03-28T09:38:09.451Z,12.00
2019-03-28T09:40:39.354Z,12.00
2019-03-28T09:43:09.210Z,12.10
2019-03-28T09:45:39.146Z,12.10
2019-03-28T09:48:11.629Z,12.10
2019-03-28T09:50:40.551Z,12.10
2019-03-28T09:53:10.450Z,12.20
2019-03-28T09:55:40.170Z,12.20
2019-03-28T09:58:10.114Z,12.20
2019-03-28T10:00:40.935Z,12.10
2019-03-28T10:03:13.646Z,12.10
2019-03-28T10:05:43.511Z,12.10
2019-03-28T10:08:13.408Z,12.10
2019-03-28T10:10:43.228Z,12.10
2019-03-28T10:13:14.189Z,12.10
2019-03-28T10:15:44.066Z,12.00
2019-03-28T10:18:14.165Z,12.00
2019-03-28T10:20:44.135Z,12.00
2019-03-28T10:23:14.131Z,12.00
2019-03-28T10:25:43.963Z,12.00
2019-03-28T10:28:13.889Z,12.00
2019-03-28T10:30:45.310Z,12.00
2019-03-28T10:33:15.137Z,12.00
2019-03-28T10:35:45.237Z,12.00
2019-03-28T10:38:15.262Z,12.10
2019-03-28T10:40:45.280Z,12.10
2019-03-28T10:43:15.159Z,12.20
2019-03-28T10:45:45.069Z,12.20
2019-03-28T10:48:15.082Z,12.10
2019-03-28T10:50:46.052Z,12.10
2019-03-28T10:53:16.004Z,12.20
2019-03-28T10:55:45.857Z,12.30
2019-03-28T10:58:19.475Z,12.30
2019-03-28T11:00:47.262Z,12.30
2019-03-28T11:03:17.236Z,12.30
2019-03-28T11:05:47.173Z,12.10
2019-03-28T11:08:16.874Z,12.10
2019-03-28T11:10:47.074Z,12.10
2019-03-28T11:13:17.034Z,12.10
2019-03-28T11:15:47.444Z,12.10
2019-03-28T11:18:17.256Z,12.20
2019-03-28T11:20:48.363Z,12.30
2019-03-28T11:23:41.085Z,12.40
2019-03-28T11:26:12.412Z,12.30
2019-03-28T11:28:44.376Z,12.30
2019-03-28T11:31:15.340Z,12.30
2019-03-28T11:33:47.625Z,12.20
2019-03-28T11:36:18.168Z,12.20
2019-03-28T11:38:48.155Z,12.30
2019-03-28T11:41:17.949Z,12.40
2019-03-28T11:43:48.811Z,12.40
2019-03-28T11:46:18.673Z,12.40
2019-03-28T11:48:48.841Z,12.30
2019-03-28T11:51:18.660Z,12.20
2019-03-28T11:53:48.401Z,12.20
2019-03-28T11:56:18.102Z,12.20
2019-03-28T11:58:49.972Z,12.10
2019-03-28T12:01:19.950Z,11.90
2019-03-28T12:03:50.352Z,11.90
2019-03-28T12:06:20.391Z,11.90
2019-03-28T12:08:50.293Z,12.00
2019-03-28T12:11:20.245Z,12.00
2019-03-28T12:13:50.091Z,12.10
2019-03-28T12:16:19.853Z,12.20
2019-03-28T12:18:50.408Z,12.10
2019-03-28T12:21:43.159Z,12.20
2019-03-28T12:24:12.985Z,12.20
2019-03-28T12:26:42.768Z,12.20
2019-03-28T12:29:12.633Z,12.20
2019-03-28T12:31:42.732Z,12.30
2019-03-28T12:34:12.565Z,12.00
2019-03-28T12:36:42.372Z,12.20
2019-03-28T12:39:15.377Z,12.20
2019-03-28T12:41:43.869Z,12.30
2019-03-28T12:44:13.777Z,12.40
2019-03-28T12:46:43.669Z,12.30
2019-03-28T12:49:16.596Z,12.40
2019-03-28T12:51:46.433Z,12.20
2019-03-28T12:54:16.389Z,12.30
2019-03-28T12:56:46.249Z,12.50
2019-03-28T12:59:16.009Z,12.60
2019-03-28T13:01:45.978Z,12.60
2019-03-28T13:04:15.729Z,12.70
2019-03-28T13:06:45.645Z,12.70
2019-03-28T13:09:15.733Z,12.60
2019-03-28T13:11:45.781Z,12.60
2019-03-28T13:14:15.894Z,12.60
2019-03-28T13:16:45.749Z,12.80
2019-03-28T13:19:17.419Z,12.80
2019-03-28T13:21:47.311Z,12.80
2019-03-28T13:24:17.332Z,12.90
2019-03-28T13:26:47.153Z,12.90
2019-03-28T13:29:17.083Z,13.00
2019-03-28T13:32:05.686Z,13.00
2019-03-28T13:34:35.480Z,13.00
2019-03-28T13:37:05.240Z,13.10
2019-03-28T13:39:37.599Z,13.20
2019-03-28T13:42:06.987Z,13.20
2019-03-28T13:44:36.735Z,13.20
2019-03-28T13:47:06.435Z,13.10
2019-03-28T13:49:36.285Z,13.20
2019-03-28T13:52:06.101Z,13.10
2019-03-28T13:54:36.984Z,13.10
2019-03-28T13:57:06.705Z,13.10
2019-03-28T13:59:36.472Z,13.00
2019-03-28T14:02:07.071Z,13.00
2019-03-28T14:04:37.050Z,13.10
2019-03-28T14:07:06.823Z,13.10
2019-03-28T14:09:36.538Z,13.10
2019-03-28T14:12:06.291Z,13.00
2019-03-28T14:14:35.975Z,13.00
2019-03-28T14:17:05.802Z,12.80
2019-03-28T14:19:35.660Z,12.80
2019-03-28T14:22:05.433Z,12.80
2019-03-28T14:24:35.220Z,12.80
2019-03-28T14:27:04.848Z,12.70
2019-03-28T14:29:34.603Z,12.70
2019-03-28T14:32:04.431Z,12.70
2019-03-28T14:34:34.242Z,12.70
2019-03-28T14:37:03.994Z,12.60
2019-03-28T14:39:33.878Z,12.70
2019-03-28T14:42:03.858Z,12.60
2019-03-28T14:44:33.639Z,12.70
2019-03-28T14:47:03.391Z,12.70
2019-03-28T14:49:33.337Z,12.70
2019-03-28T14:52:04.367Z,12.60
2019-03-28T14:54:34.402Z,12.60
2019-03-28T14:57:04.412Z,12.60
2019-03-28T14:59:35.323Z,12.50
2019-03-28T15:02:05.147Z,12.70
2019-03-28T15:04:34.821Z,12.70
2019-03-28T15:07:08.048Z,12.70
2019-03-28T15:09:37.880Z,12.80
2019-03-28T15:12:07.605Z,12.70
2019-03-28T15:14:37.342Z,12.70
2019-03-28T15:17:07.211Z,12.70
2019-03-28T15:19:37.270Z,12.60
2019-03-28T15:22:07.031Z,12.60
2019-03-28T15:24:36.956Z,12.60
2019-03-28T15:27:08.815Z,12.60
2019-03-28T15:29:38.518Z,12.70
2019-03-28T15:32:08.360Z,12.80
2019-03-28T15:34:38.111Z,12.80
2019-03-28T15:37:08.012Z,12.80
2019-03-28T15:39:37.721Z,12.70
2019-03-28T15:42:07.472Z,12.70
2019-03-28T15:44:39.406Z,12.60
2019-03-28T15:47:08.852Z,12.70
2019-03-28T15:49:38.544Z,12.70
2019-03-28T15:52:08.230Z,12.60
2019-03-28T15:54:37.887Z,12.50
2019-03-28T15:57:07.730Z,12.50
2019-03-28T15:59:37.613Z,12.50
2019-03-28T16:02:08.169Z,12.60
2019-03-28T16:04:37.852Z,12.70
2019-03-28T16:07:07.810Z,12.60
2019-03-28T16:09:37.899Z,12.70
2019-03-28T16:12:07.672Z,12.70
2019-03-28T16:14:37.542Z,12.70
2019-03-28T16:17:07.158Z,12.60
2019-03-28T16:19:37.019Z,12.50
2019-03-28T16:22:07.053Z,12.50
2019-03-28T16:24:36.960Z,12.50
2019-03-28T16:27:06.698Z,12.50
2019-03-28T16:29:38.238Z,12.60
2019-03-28T16:32:08.078Z,12.50
2019-03-28T16:34:38.005Z,12.50
2019-03-28T16:37:07.867Z,12.50
2019-03-28T16:39:37.842Z,12.50
2019-03-28T16:42:09.445Z,12.50
2019-03-28T16:44:39.243Z,12.30
2019-03-28T16:47:08.958Z,12.20
2019-03-28T16:49:38.627Z,12.20
2019-03-28T16:52:08.430Z,12.20
2019-03-28T16:54:38.467Z,12.20
2019-03-28T16:57:08.244Z,12.10
2019-03-28T16:59:37.981Z,12.10
2019-03-28T17:02:07.721Z,12.10
2019-03-28T17:04:37.522Z,12.10
2019-03-28T17:07:08.455Z,12.10
2019-03-28T17:09:39.764Z,12.20
2019-03-28T17:12:09.625Z,12.20
2019-03-28T17:14:39.409Z,12.30
2019-03-28T17:17:09.251Z,12.30
2019-03-28T17:19:38.996Z,12.30
2019-03-28T17:22:09.545Z,12.20
2019-03-28T17:24:39.352Z,12.20
2019-03-28T17:27:09.153Z,12.20
2019-03-28T17:29:38.963Z,12.10
2019-03-28T17:32:15.079Z,12.10
2019-03-28T17:34:46.044Z,12.00
2019-03-28T17:37:16.250Z,12.00
2019-03-28T17:39:46.167Z,11.80
2019-03-28T17:42:15.856Z,11.90
2019-03-28T17:44:45.670Z,11.90
2019-03-28T17:47:15.361Z,11.80
2019-03-28T17:49:44.904Z,11.90
2019-03-28T17:52:14.887Z,11.80
2019-03-28T17:54:44.549Z,11.70
2019-03-28T17:57:14.237Z,11.70
2019-03-28T17:59:45.328Z,11.70
2019-03-28T18:02:15.267Z,11.60
2019-03-28T18:04:48.136Z,11.60
2019-03-28T18:07:16.467Z,11.60
2019-03-28T18:09:46.136Z,11.60
2019-03-28T18:12:15.811Z,11.60
2019-03-28T18:14:45.622Z,11.60
2019-03-28T18:17:15.359Z,11.70
2019-03-28T18:19:45.129Z,11.70
2019-03-28T18:22:14.995Z,11.70
2019-03-28T18:24:45.018Z,11.70
2019-03-28T18:27:14.841Z,11.70
2019-03-28T18:29:44.588Z,11.80
2019-03-28T18:32:14.450Z,11.70
2019-03-28T18:34:44.108Z,11.70
2019-03-28T18:37:14.052Z,11.70
2019-03-28T18:39:43.835Z,11.70
2019-03-28T18:42:13.786Z,11.70
2019-03-28T18:44:43.512Z,11.60
2019-03-28T18:47:13.416Z,11.70
2019-03-28T18:49:43.220Z,11.70
2019-03-28T18:52:12.968Z,11.70
2019-03-28T18:54:42.781Z,11.70
2019-03-28T18:57:12.463Z,11.70
2019-03-28T18:59:43.694Z,11.70
2019-03-28T19:02:13.541Z,11.70
2019-03-28T19:04:43.215Z,11.60
2019-03-28T19:07:12.912Z,11.60
2019-03-28T19:09:42.740Z,11.70
2019-03-28T19:12:12.561Z,11.70
2019-03-28T19:14:42.193Z,11.70
2019-03-28T19:17:12.005Z,11.70
2019-03-28T19:19:44.174Z,11.70
2019-03-28T19:22:16.291Z,11.70
2019-03-28T19:24:45.977Z,11.70
2019-03-28T19:27:15.555Z,11.70
2019-03-28T19:29:45.207Z,11.80
2019-03-28T19:32:14.906Z,11.70
2019-03-28T19:34:44.745Z,11.70
2019-03-28T19:37:14.988Z,11.60
2019-03-28T19:39:44.680Z,11.60
2019-03-28T19:42:14.488Z,11.60
2019-03-28T19:44:44.303Z,11.70
2019-03-28T19:47:14.248Z,11.70
2019-03-28T19:49:43.927Z,11.70
2019-03-28T19:52:13.872Z,11.70
2019-03-28T19:54:43.608Z,11.70
2019-03-28T19:57:13.436Z,11.70
2019-03-28T19:59:43.271Z,11.70
2019-03-28T20:02:14.316Z,11.70
2019-03-28T20:04:44.472Z,11.60
2019-03-28T20:07:21.600Z,11.60
2019-03-28T20:09:45.655Z,11.60
2019-03-28T20:12:15.418Z,11.60
2019-03-28T20:14:45.233Z,11.60
2019-03-28T20:17:15.044Z,11.60
2019-03-28T20:19:44.743Z,11.60
2019-03-28T20:22:14.663Z,11.60
2019-03-28T20:24:44.428Z,11.60
2019-03-28T20:27:14.234Z,11.60
2019-03-28T20:29:44.337Z,11.60
2019-03-28T20:32:14.020Z,11.50
2019-03-28T20:34:43.688Z,11.50
2019-03-28T20:37:13.407Z,11.40
2019-03-28T20:39:43.231Z,11.40
2019-03-28T20:42:13.004Z,11.40
2019-03-28T20:44:42.846Z,11.30
2019-03-28T20:47:13.330Z,11.30
2019-03-28T20:49:46.470Z,11.20
2019-03-28T20:52:14.849Z,11.20
2019-03-28T20:54:44.500Z,11.10
2019-03-28T20:57:14.335Z,11.10
2019-03-28T20:59:44.303Z,11.00
2019-03-28T21:02:14.183Z,11.00
2019-03-28T21:04:43.830Z,11.00
2019-03-28T21:07:15.410Z,10.90
2019-03-28T21:09:45.115Z,10.90
2019-03-28T21:12:15.000Z,10.80
2019-03-28T21:14:44.809Z,10.80
2019-03-28T21:17:14.515Z,10.70
2019-03-28T21:19:44.775Z,10.70
2019-03-28T21:22:14.707Z,10.60
2019-03-28T21:24:44.633Z,10.60
2019-03-28T21:27:14.283Z,10.60
2019-03-28T21:29:49.013Z,10.50
2019-03-28T21:32:15.474Z,10.50
2019-03-28T21:34:45.172Z,10.40
2019-03-28T21:37:27.069Z,10.40
2019-03-28T21:39:56.984Z,10.30
2019-03-28T21:42:26.779Z,10.30
2019-03-28T21:44:58.363Z,10.30
2019-03-28T21:47:28.448Z,10.20
2019-03-28T21:49:58.190Z,10.20
2019-03-28T21:52:27.859Z,10.20
2019-03-28T21:54:57.805Z,10.10
2019-03-28T21:57:27.452Z,10.10
2019-03-28T21:59:57.312Z,10.10
2019-03-28T22:02:26.981Z,10.00
2019-03-28T22:04:56.732Z,10.00
2019-03-28T22:07:26.378Z,10.00
2019-03-28T22:09:56.244Z,10.00
2019-03-28T22:12:25.942Z,9.90
2019-03-28T22:14:56.709Z,9.90
2019-03-28T22:17:27.180Z,9.80
2019-03-28T22:19:57.043Z,9.80
2019-03-28T22:22:26.884Z,9.80
2019-03-28T22:25:18.638Z,9.80
2019-03-28T22:27:48.430Z,9.70
2019-03-28T22:30:19.475Z,9.70
2019-03-28T22:32:49.989Z,9.70
2019-03-28T22:35:20.071Z,9.70
2019-03-28T22:37:49.911Z,9.60
2019-03-28T22:40:19.687Z,9.60
2019-03-28T22:42:49.344Z,9.60
2019-03-28T22:45:19.210Z,9.50
2019-03-28T22:47:48.847Z,9.50
2019-03-28T22:50:18.647Z,9.50
2019-03-28T22:52:48.522Z,9.40
2019-03-28T22:55:18.223Z,9.40
2019-03-28T22:57:47.907Z,9.40
2019-03-28T23:00:18.915Z,9.40
2019-03-28T23:02:48.998Z,9.40
2019-03-28T23:05:18.925Z,9.40
2019-03-28T23:07:48.864Z,9.30
2019-03-28T23:10:20.948Z,9.30
2019-03-28T23:12:50.017Z,9.30
2019-03-28T23:15:21.965Z,9.20
2019-03-28T23:17:51.907Z,9.20
2019-03-28T23:20:21.812Z,9.20
2019-03-28T23:22:51.384Z,9.20
2019-03-28T23:25:21.436Z,9.20
2019-03-28T23:27:51.075Z,9.10
2019-03-28T23:30:20.799Z,9.10
2019-03-28T23:32:50.529Z,9.10
2019-03-28T23:35:20.189Z,9.00
2019-03-28T23:37:57.276Z,9.00
2019-03-28T23:40:27.441Z,9.00
2019-03-28T23:42:58.148Z,9.00
2019-03-28T23:45:29.252Z,9.00
2019-03-28T23:47:59.093Z,9.00
2019-03-28T23:50:28.788Z,9.00
2019-03-28T23:52:58.565Z,8.90
2019-03-28T23:55:28.336Z,8.90
2019-03-28T23:57:58.133Z,8.90
